Time;durP1;ratioP1;P1;durP2;ratioP2;P2;SDS_P1;SDS_P2;PMS_P1;PMS_P2;Temp;Humidity;BMP_temperature;BMP_pressure;BME280_temperature;BME280_humidity;BME280_pressure;Samples;Min_cycle;Max_cycle;Signal;HPM_P1;HPM_P2
2022/04/02 03:42:41;;;;;;;41.83;38.73;;;1.80;99.90;;;;;;5824751;23;21016;-77
2022/04/02 03:45:09;;;;;;;41.40;38.30;;;1.80;99.90;;;;;;5004224;28;20480;-76
2022/04/02 03:47:36;;;;;;;40.00;36.90;;;1.80;99.90;;;;;;4994256;28;20447;-76
2022/04/02 03:50:04;;;;;;;41.40;38.30;;;1.70;99.90;;;;;;5000724;28;20461;-76
2022/04/02 03:52:31;;;;;;;40.40;36.90;;;1.70;99.90;;;;;;4997529;28;21020;-76
2022/04/02 03:54:58;;;;;;;39.70;36.80;;;1.70;99.90;;;;;;4993738;28;20470;-76
2022/04/02 03:57:25;;;;;;;40.53;37.43;;;1.80;99.90;;;;;;4993520;28;20542;-76
2022/04/02 03:59:53;;;;;;;41.50;38.00;;;1.80;99.90;;;;;;4993715;28;20463;-76
2022/04/02 04:02:21;;;;;;;39.87;36.93;;;1.80;99.90;;;;;;4993922;28;20864;-75
2022/04/02 04:04:48;;;;;;;40.50;37.50;;;1.70;99.90;;;;;;4993566;28;20457;-76
2022/04/02 04:07:15;;;;;;;40.90;37.80;;;1.70;99.90;;;;;;4993480;28;20450;-75
2022/04/02 04:09:42;;;;;;;39.40;36.60;;;1.70;99.90;;;;;;4993408;28;21024;-74
2022/04/02 04:12:10;;;;;;;40.70;37.50;;;1.60;99.90;;;;;;4993288;28;20454;-75
2022/04/02 04:14:37;;;;;;;39.57;36.07;;;1.70;99.90;;;;;;4993447;28;20465;-75
2022/04/02 04:17:05;;;;;;;37.50;34.63;;;1.70;99.90;;;;;;4993472;28;20459;-75
2022/04/02 04:19:32;;;;;;;38.40;35.80;;;1.70;99.90;;;;;;4993269;28;20447;-75
2022/04/02 04:21:59;;;;;;;39.90;36.50;;;1.70;99.90;;;;;;4993337;28;20451;-75
2022/04/02 04:24:26;;;;;;;40.17;37.37;;;1.60;99.90;;;;;;4993231;28;20457;-76
2022/04/02 04:26:53;;;;;;;38.03;35.53;;;1.70;99.90;;;;;;4992871;28;20458;-75
2022/04/02 04:29:20;;;;;;;38.60;35.90;;;1.70;99.90;;;;;;4993310;28;20458;-76
2022/04/02 04:31:46;;;;;;;39.03;35.90;;;1.70;99.90;;;;;;4992976;28;20457;-75
2022/04/02 04:34:17;;;;;;;39.10;35.97;;;1.70;99.90;;;;;;4992182;28;20510;-75
2022/04/02 04:36:43;;;;;;;37.70;34.87;;;1.70;99.90;;;;;;4993037;28;20494;-75
2022/04/02 04:39:10;;;;;;;38.17;35.47;;;1.70;99.90;;;;;;4992727;28;20483;-75
2022/04/02 04:41:38;;;;;;;38.03;35.17;;;1.70;99.90;;;;;;4992750;28;20468;-75
2022/04/02 04:44:05;;;;;;;36.50;33.63;;;1.70;99.90;;;;;;5004681;28;20479;-74
2022/04/02 04:46:32;;;;;;;37.47;34.30;;;1.70;99.90;;;;;;5012336;28;20962;-75
2022/04/02 04:48:58;;;;;;;35.80;33.10;;;1.60;99.90;;;;;;5012216;28;20455;-76
2022/04/02 04:51:26;;;;;;;35.57;32.97;;;1.60;99.90;;;;;;5014388;28;20473;-76
2022/04/02 04:53:53;;;;;;;35.07;32.67;;;1.70;99.90;;;;;;5029047;28;20873;-76
2022/04/02 04:56:20;;;;;;;37.40;34.50;;;1.70;99.90;;;;;;5032120;28;20445;-75
2022/04/02 04:58:46;;;;;;;38.50;35.23;;;1.60;99.90;;;;;;5031744;28;20489;-75
2022/04/02 05:01:13;;;;;;;35.67;33.00;;;1.70;99.90;;;;;;5031800;28;20479;-75
2022/04/02 05:03:40;;;;;;;36.90;34.30;;;1.70;99.90;;;;;;5031848;28;20457;-75
2022/04/02 05:06:09;;;;;;;37.63;34.97;;;1.70;99.90;;;;;;5031712;28;20449;-75
2022/04/02 05:08:38;;;;;;;38.87;35.97;;;1.70;99.90;;;;;;5031642;28;20445;-74
2022/04/02 05:11:05;;;;;;;39.83;36.73;;;1.80;99.90;;;;;;5031772;28;20456;-75
2022/04/02 05:13:31;;;;;;;38.13;35.53;;;1.70;99.90;;;;;;5031584;28;20540;-75
2022/04/02 05:15:58;;;;;;;40.07;37.07;;;1.70;99.90;;;;;;5031564;28;20449;-74
2022/04/02 05:18:25;;;;;;;41.17;38.27;;;1.70;99.90;;;;;;5031364;28;20492;-75
2022/04/02 05:20:52;;;;;;;41.53;37.90;;;1.70;99.90;;;;;;5031602;28;20447;-75
2022/04/02 05:23:18;;;;;;;39.90;37.10;;;1.70;99.90;;;;;;5031539;28;20447;-75
2022/04/02 05:25:46;;;;;;;40.50;37.30;;;1.70;99.90;;;;;;5031502;28;20546;-75
2022/04/02 05:28:13;;;;;;;44.43;41.20;;;1.80;99.90;;;;;;5031137;28;20500;-74
2022/04/02 05:30:40;;;;;;;41.43;38.43;;;1.70;99.90;;;;;;5031377;28;20816;-75
2022/04/02 05:33:07;;;;;;;41.97;38.87;;;1.70;99.90;;;;;;5031168;28;20453;-76
2022/04/02 05:35:34;;;;;;;42.23;39.03;;;1.70;99.90;;;;;;5031505;28;20455;-76
2022/04/02 05:38:01;;;;;;;40.17;37.17;;;1.70;99.90;;;;;;5031165;28;20488;-75
2022/04/02 05:40:27;;;;;;;39.77;36.97;;;1.70;99.90;;;;;;5031404;28;20459;-75
2022/04/02 05:42:55;;;;;;;41.77;38.67;;;1.70;99.90;;;;;;5030945;28;20480;-75
2022/04/02 05:45:22;;;;;;;41.53;38.43;;;1.70;99.90;;;;;;5030675;28;20452;-76
2022/04/02 05:47:51;;;;;;;40.60;37.60;;;1.60;99.90;;;;;;5031296;28;20449;-76
2022/04/02 05:50:19;;;;;;;40.07;37.07;;;1.60;99.90;;;;;;5031238;28;20449;-76
2022/04/02 05:52:49;;;;;;;41.33;38.30;;;1.70;99.90;;;;;;5024467;28;20472;-77
2022/04/02 05:55:17;;;;;;;40.23;37.27;;;1.60;99.90;;;;;;5011833;28;20454;-81
2022/04/02 05:57:44;;;;;;;42.27;39.00;;;1.70;99.90;;;;;;5011172;28;20823;-79
2022/04/02 06:00:15;;;;;;;39.20;36.40;;;1.60;99.90;;;;;;5010969;28;21251;-83
2022/04/02 06:02:43;;;;;;;40.83;37.63;;;1.70;99.90;;;;;;5011249;28;20468;-79
2022/04/02 06:05:12;;;;;;;40.93;37.97;;;1.70;99.90;;;;;;5011045;28;21010;-79
2022/04/02 06:07:38;;;;;;;41.00;38.20;;;1.80;99.90;;;;;;5011021;28;20460;-78
2022/04/02 06:10:06;;;;;;;41.83;38.73;;;1.80;99.90;;;;;;5011148;28;20455;-78
2022/04/02 06:12:33;;;;;;;41.30;38.10;;;1.80;99.90;;;;;;5011136;28;20448;-78
2022/04/02 06:15:01;;;;;;;39.43;36.63;;;1.80;99.90;;;;;;5010947;28;20462;-78
2022/04/02 06:17:29;;;;;;;39.03;36.43;;;1.80;99.90;;;;;;5010859;28;20464;-78
2022/04/02 06:19:55;;;;;;;40.33;37.53;;;1.80;99.90;;;;;;5010935;28;20493;-78
2022/04/02 06:22:22;;;;;;;40.17;37.17;;;1.80;99.90;;;;;;5010833;28;20458;-78
2022/04/02 06:24:49;;;;;;;39.20;36.57;;;1.80;99.90;;;;;;5011112;28;20456;-78
2022/04/02 06:27:15;;;;;;;42.37;39.30;;;1.80;99.90;;;;;;5011010;28;20858;-78
2022/04/02 06:29:42;;;;;;;40.30;37.30;;;1.80;99.90;;;;;;5010779;28;20546;-76
2022/04/02 06:32:09;;;;;;;39.90;37.20;;;1.80;99.90;;;;;;5010829;28;20498;-78
2022/04/02 06:34:37;;;;;;;38.60;35.73;;;1.90;99.90;;;;;;5011076;28;20447;-76
2022/04/02 06:37:04;;;;;;;39.37;36.43;;;1.80;99.90;;;;;;5011099;28;20458;-77
2022/04/02 06:39:31;;;;;;;40.30;37.60;;;1.90;99.90;;;;;;5010758;28;20490;-77
2022/04/02 06:41:58;;;;;;;37.03;34.43;;;1.90;99.90;;;;;;5010656;28;20470;-76
2022/04/02 06:44:24;;;;;;;40.53;37.80;;;1.90;99.90;;;;;;5010475;28;20493;-78
2022/04/02 06:46:51;;;;;;;38.17;35.13;;;1.90;99.90;;;;;;5010947;28;20789;-76
2022/04/02 06:49:18;;;;;;;38.63;36.20;;;1.90;99.90;;;;;;5010996;28;20459;-76
2022/04/02 06:51:46;;;;;;;37.70;34.87;;;1.90;99.90;;;;;;5010676;28;20454;-76
2022/04/02 06:54:13;;;;;;;38.50;36.10;;;1.90;99.90;;;;;;5010610;28;20528;-77
2022/04/02 06:56:39;;;;;;;38.50;35.90;;;2.00;99.90;;;;;;5012350;28;20460;-77
2022/04/02 06:59:06;;;;;;;38.50;36.10;;;2.00;99.90;;;;;;5014351;28;20493;-79
2022/04/02 07:01:33;;;;;;;37.30;35.00;;;2.00;99.90;;;;;;5014380;28;20490;-78
2022/04/02 07:04:00;;;;;;;38.13;35.33;;;2.00;99.90;;;;;;5014059;28;20519;-79
2022/04/02 07:06:27;;;;;;;38.40;35.80;;;2.00;99.90;;;;;;5014123;28;21195;-79
2022/04/02 07:08:55;;;;;;;37.30;34.60;;;2.10;99.90;;;;;;5013909;28;20945;-79
2022/04/02 07:11:22;;;;;;;37.80;34.90;;;2.10;99.90;;;;;;5014167;28;20554;-79
2022/04/02 07:13:49;;;;;;;38.67;35.97;;;1.90;99.90;;;;;;5014243;28;20461;-80
2022/04/02 07:16:16;;;;;;;35.17;32.80;;;2.00;99.90;;;;;;5013991;28;20453;-80
2022/04/02 07:18:44;;;;;;;37.53;35.03;;;2.10;99.90;;;;;;5013987;28;20485;-82
2022/04/02 07:21:14;;;;;;;36.90;34.40;;;2.10;99.90;;;;;;5013920;28;20451;-80
2022/04/02 07:23:42;;;;;;;38.17;35.60;;;2.10;99.90;;;;;;5014208;28;20462;-84
2022/04/02 07:26:11;;;;;;;38.60;36.10;;;2.10;99.90;;;;;;5013934;28;20462;-80
2022/04/02 07:28:38;;;;;;;38.40;35.40;;;2.30;99.90;;;;;;5013774;28;20451;-80
2022/04/02 07:31:05;;;;;;;37.60;35.10;;;2.20;99.90;;;;;;5014303;28;20454;-86
2022/04/02 07:33:32;;;;;;;36.90;34.60;;;2.20;99.90;;;;;;5014054;28;20451;-83
2022/04/02 07:36:04;;;;;;;37.80;35.40;;;2.30;99.90;;;;;;5013729;28;20455;-81
2022/04/02 07:38:37;;;;;;;39.60;36.80;;;2.40;99.90;;;;;;5013612;28;20542;-79
2022/04/02 07:41:10;;;;;;;39.93;37.43;;;2.40;99.90;;;;;;5013694;28;21004;-77
2022/04/02 07:43:44;;;;;;;38.97;36.47;;;2.50;99.90;;;;;;5013687;28;20577;-75
2022/04/02 07:46:15;;;;;;;38.00;35.40;;;2.50;99.90;;;;;;5013301;28;20461;-75
2022/04/02 07:48:46;;;;;;;36.60;34.20;;;2.60;99.90;;;;;;5013473;28;20459;-79
2022/04/02 07:51:14;;;;;;;38.80;35.90;;;2.60;99.90;;;;;;5013380;28;20465;-79
2022/04/02 07:53:45;;;;;;;36.53;34.23;;;2.40;99.90;;;;;;5013306;28;20547;-80
2022/04/02 07:56:15;;;;;;;36.37;33.90;;;2.20;99.90;;;;;;5013474;28;20500;-82
2022/04/02 07:58:47;;;;;;;39.60;37.20;;;2.20;99.90;;;;;;5013069;28;20540;-83
2022/04/02 08:01:17;;;;;;;34.60;32.47;;;2.30;99.90;;;;;;5013066;28;20502;-80
2022/04/02 08:03:44;;;;;;;38.27;35.77;;;2.20;99.90;;;;;;5013287;28;20477;-80
2022/04/02 08:06:12;;;;;;;38.53;36.03;;;2.10;99.90;;;;;;5013109;28;20508;-82
2022/04/02 08:08:40;;;;;;;37.00;34.90;;;2.00;99.90;;;;;;5012852;28;20440;-84
2022/04/02 08:11:09;;;;;;;37.93;35.63;;;2.00;99.90;;;;;;5013211;28;20457;-83
2022/04/02 08:13:37;;;;;;;37.43;35.03;;;2.00;99.90;;;;;;5013477;28;20449;-82
2022/04/02 08:16:05;;;;;;;37.20;34.80;;;2.10;99.90;;;;;;5013273;28;20459;-82
2022/04/02 08:18:32;;;;;;;37.07;34.67;;;2.10;99.90;;;;;;5013307;28;20489;-81
2022/04/02 08:20:59;;;;;;;35.07;32.80;;;2.10;99.90;;;;;;5012891;28;20502;-81
2022/04/02 08:23:26;;;;;;;35.67;33.30;;;2.10;99.90;;;;;;5013060;28;20453;-82
2022/04/02 08:26:16;;;;;;;36.03;33.90;;;2.10;99.90;;;;;;5012812;28;20451;-80
2022/04/02 08:28:54;;;;;;;37.30;34.77;;;2.00;99.90;;;;;;5011363;28;20459;-79
2022/04/02 08:31:32;;;;;;;35.07;32.80;;;1.90;99.90;;;;;;5012778;28;20461;-78
2022/04/02 08:34:08;;;;;;;37.43;35.13;;;1.90;99.90;;;;;;5012622;28;20943;-80
2022/04/02 08:36:41;;;;;;;36.43;34.30;;;2.00;99.90;;;;;;5012770;28;20487;-81
2022/04/02 08:39:14;;;;;;;36.90;34.60;;;2.10;99.90;;;;;;5012784;28;20530;-80
2022/04/02 08:42:05;;;;;;;36.73;34.37;;;2.10;99.90;;;;;;5012157;28;20467;-86
2022/04/02 08:45:07;;;;;;;37.93;35.50;;;2.10;99.90;;;;;;5012847;28;20482;-77
2022/04/02 08:48:19;;;;;;;36.13;33.93;;;2.10;99.90;;;;;;5012503;28;20982;-81
2022/04/02 08:50:47;;;;;;;39.53;37.13;;;2.10;99.90;;;;;;5012499;28;20455;-82
2022/04/02 08:53:23;;;;;;;38.10;35.47;;;2.10;99.90;;;;;;5012408;28;20462;-83
2022/04/02 08:55:54;;;;;;;39.90;37.40;;;2.10;99.90;;;;;;5012621;28;20463;-82
2022/04/02 08:58:26;;;;;;;38.60;36.07;;;2.20;99.90;;;;;;5012491;28;20452;-83
2022/04/02 09:01:09;;;;;;;39.63;36.97;;;2.30;99.90;;;;;;5012451;28;20426;-83
2022/04/02 09:04:30;;;;;;;35.83;33.50;;;2.40;99.90;;;;;;5009541;28;20472;-85
2022/04/02 09:07:16;;;;;;;36.50;34.10;;;2.30;99.90;;;;;;5013000;28;20672;-87
2022/04/02 09:10:21;;;;;;;41.73;39.00;;;2.20;99.90;;;;;;5012790;28;20450;-85
2022/04/02 09:13:23;;;;;;;40.23;37.33;;;2.20;99.90;;;;;;5013081;28;20476;-86
2022/04/02 09:16:00;;;;;;;40.50;37.53;;;2.20;99.90;;;;;;5013134;28;20807;-85
2022/04/02 09:18:38;;;;;;;40.93;37.93;;;2.20;99.90;;;;;;5012625;28;20438;-86
2022/04/02 09:21:39;;;;;;;40.60;37.90;;;2.20;99.90;;;;;;5013408;28;20448;-88
2022/04/02 09:24:11;;;;;;;38.80;36.30;;;2.30;99.90;;;;;;4960149;28;20468;-86
2022/04/02 09:27:14;;;;;;;38.00;35.40;;;2.20;99.90;;;;;;5015981;28;20451;-89
2022/04/02 09:29:51;;;;;;;38.97;36.47;;;2.20;99.90;;;;;;5039007;28;20452;-91
2022/04/02 09:32:52;;;;;;;37.03;34.63;;;2.10;99.90;;;;;;5051812;28;20467;-88
2022/04/02 09:35:50;;;;;;;40.27;37.37;;;2.00;99.90;;;;;;5032379;28;21113;-88
2022/04/02 09:38:48;;;;;;;37.60;35.07;;;1.90;99.90;;;;;;5012334;28;20460;-85
2022/04/02 09:41:25;;;;;;;39.13;36.43;;;2.00;99.90;;;;;;5012656;28;20461;-88
2022/04/02 09:44:04;;;;;;;40.90;38.20;;;2.20;99.90;;;;;;5021431;28;20504;-88
2022/04/02 09:46:53;;;;;;;40.03;37.30;;;2.30;99.90;;;;;;5026274;28;20451;-88
2022/04/02 09:49:24;;;;;;;38.90;36.20;;;2.40;99.90;;;;;;5018666;28;20475;-87
2022/04/02 09:51:58;;;;;;;38.80;36.00;;;2.50;99.90;;;;;;5021567;28;20462;-88
2022/04/02 09:54:35;;;;;;;42.03;39.00;;;2.40;99.90;;;;;;5012428;28;21031;-86
2022/04/02 09:57:09;;;;;;;40.47;37.93;;;2.30;99.90;;;;;;5012133;28;20432;-85
2022/04/02 09:59:47;;;;;;;41.23;38.43;;;2.20;99.90;;;;;;5011207;28;20584;-83
2022/04/02 10:02:31;;;;;;;42.10;39.03;;;2.20;99.90;;;;;;5020927;28;20454;-81
2022/04/02 10:05:05;;;;;;;42.03;39.17;;;2.30;99.90;;;;;;5030215;28;20495;-79
2022/04/02 10:07:41;;;;;;;41.70;38.57;;;2.30;99.90;;;;;;5030330;28;20463;-79
2022/04/02 10:10:09;;;;;;;40.03;37.43;;;2.40;99.90;;;;;;5030288;28;20455;-80
2022/04/02 10:12:37;;;;;;;39.80;37.17;;;2.50;99.90;;;;;;5029852;28;20450;-80
2022/04/02 10:15:05;;;;;;;42.57;39.87;;;2.50;99.90;;;;;;5030329;28;20456;-80
2022/04/02 10:17:35;;;;;;;41.60;38.90;;;2.40;99.90;;;;;;5029961;28;20460;-80
2022/04/02 10:20:02;;;;;;;41.80;39.10;;;2.20;99.90;;;;;;5030233;28;20480;-82
2022/04/02 10:22:39;;;;;;;37.60;35.30;;;2.20;99.90;;;;;;5029990;28;20515;-82
2022/04/02 10:25:11;;;;;;;43.63;40.50;;;2.10;99.90;;;;;;5031077;28;20459;-82
2022/04/02 10:27:39;;;;;;;45.23;42.30;;;2.10;99.90;;;;;;5031220;28;20453;-81
2022/04/02 10:30:09;;;;;;;42.23;39.47;;;2.30;99.90;;;;;;5031034;28;20447;-82
2022/04/02 10:32:52;;;;;;;42.97;40.07;;;2.30;99.90;;;;;;5034530;28;20489;-82
2022/04/02 10:35:20;;;;;;;40.93;38.13;;;2.40;99.90;;;;;;5034696;28;20461;-80
2022/04/02 10:38:04;;;;;;;42.60;39.83;;;2.50;99.90;;;;;;5034633;28;20455;-82
2022/04/02 10:40:33;;;;;;;43.47;40.63;;;2.60;99.90;;;;;;5034700;28;20480;-80
2022/04/02 10:43:04;;;;;;;40.80;37.97;;;2.70;99.90;;;;;;5034115;28;20972;-79
2022/04/02 10:45:35;;;;;;;44.57;41.37;;;2.60;99.90;;;;;;5034578;28;20817;-78
2022/04/02 10:48:08;;;;;;;40.20;37.70;;;2.50;99.90;;;;;;5034619;28;20455;-79
2022/04/02 10:50:37;;;;;;;42.03;39.30;;;2.50;99.90;;;;;;5034816;28;20543;-77
2022/04/02 10:53:05;;;;;;;41.23;38.43;;;2.50;99.90;;;;;;5034567;28;20518;-79
2022/04/02 10:55:33;;;;;;;42.90;39.90;;;2.40;99.90;;;;;;5034443;28;20471;-79
2022/04/02 10:58:01;;;;;;;44.70;41.70;;;2.40;99.90;;;;;;5034163;28;21054;-79
2022/04/02 11:00:29;;;;;;;42.17;39.43;;;2.50;99.90;;;;;;5033926;28;21244;-79
2022/04/02 11:03:02;;;;;;;43.40;40.13;;;2.30;99.90;;;;;;5034324;28;20810;-79
2022/04/02 11:05:35;;;;;;;40.73;38.07;;;2.20;99.90;;;;;;5034288;28;20499;-79
2022/04/02 11:08:05;;;;;;;43.00;40.30;;;2.20;99.90;;;;;;5034017;28;20447;-78
2022/04/02 11:10:35;;;;;;;38.43;36.00;;;2.20;99.90;;;;;;5034541;28;20479;-80
2022/04/02 11:13:04;;;;;;;42.13;39.13;;;2.20;99.90;;;;;;5034587;28;20494;-80
2022/04/02 11:15:31;;;;;;;42.60;39.60;;;2.20;99.90;;;;;;5033803;28;20555;-79
2022/04/02 11:18:01;;;;;;;42.80;39.77;;;2.10;99.90;;;;;;5033922;28;20462;-79
2022/04/02 11:20:29;;;;;;;44.47;41.67;;;2.10;99.90;;;;;;5033647;28;20484;-79
2022/04/02 11:23:11;;;;;;;43.30;40.50;;;2.30;99.90;;;;;;5033894;28;20453;-79
2022/04/02 11:25:42;;;;;;;44.93;42.03;;;2.40;99.90;;;;;;5033847;28;20465;-79
2022/04/02 11:28:12;;;;;;;46.60;43.13;;;2.50;99.90;;;;;;5033841;28;20458;-78
2022/04/02 11:30:41;;;;;;;45.43;42.37;;;2.60;99.90;;;;;;5033744;28;20481;-80
2022/04/02 11:33:10;;;;;;;43.43;40.70;;;2.90;99.90;;;;;;5033325;28;20454;-81
2022/04/02 11:35:39;;;;;;;46.27;43.37;;;3.10;99.90;;;;;;5033776;28;20451;-80
2022/04/02 11:38:14;;;;;;;46.37;43.37;;;3.50;99.90;;;;;;5033952;28;20457;-83
2022/04/02 11:40:52;;;;;;;42.47;39.90;;;4.00;99.90;;;;;;5033816;28;20488;-85
2022/04/02 11:43:19;;;;;;;38.40;36.40;;;3.90;99.90;;;;;;5033476;28;20488;-84
2022/04/02 11:45:47;;;;;;;38.87;36.73;;;3.00;99.90;;;;;;5033869;28;20462;-82
2022/04/02 11:48:18;;;;;;;42.10;39.50;;;2.70;99.90;;;;;;5033398;28;20453;-83
2022/04/02 11:50:46;;;;;;;41.70;38.90;;;2.50;99.90;;;;;;5034835;28;20859;-86
2022/04/02 11:53:14;;;;;;;37.97;35.57;;;2.60;99.90;;;;;;5033750;28;21202;-82
2022/04/02 11:55:43;;;;;;;40.17;37.70;;;2.60;99.90;;;;;;5033788;28;20995;-83
2022/04/02 11:58:11;;;;;;;42.63;39.80;;;2.50;99.90;;;;;;5033485;28;20949;-87
2022/04/02 12:00:40;;;;;;;41.10;38.37;;;2.50;99.90;;;;;;5033608;28;20564;-85
2022/04/02 12:03:21;;;;;;;40.80;38.30;;;2.70;99.90;;;;;;5033783;28;20460;-84
2022/04/02 12:05:49;;;;;;;39.97;37.30;;;2.80;99.90;;;;;;5033901;28;20460;-86
2022/04/02 12:08:29;;;;;;;42.33;39.53;;;2.80;99.90;;;;;;5034376;28;20445;-88
2022/04/02 12:14:41;;;;;;;43.63;40.70;;;2.60;99.90;;;;;;5034739;28;20486;-86
2022/04/02 12:17:41;;;;;;;43.90;40.97;;;2.60;99.90;;;;;;5035872;28;20538;-88
2022/04/02 12:20:09;;;;;;;43.97;40.73;;;2.50;99.90;;;;;;5033181;28;21002;-81
2022/04/02 12:22:39;;;;;;;44.60;41.60;;;2.40;99.90;;;;;;5033305;28;20889;-82
2022/04/02 12:25:08;;;;;;;45.67;42.50;;;2.50;99.90;;;;;;5033084;28;20457;-82
2022/04/02 12:27:36;;;;;;;45.83;42.67;;;2.50;99.90;;;;;;5032802;28;20454;-79
2022/04/02 12:30:08;;;;;;;45.13;42.10;;;2.40;99.90;;;;;;5032502;28;20453;-79
2022/04/02 12:32:36;;;;;;;43.27;40.17;;;2.30;99.90;;;;;;5032594;28;20453;-80
2022/04/02 12:35:06;;;;;;;46.17;42.43;;;2.40;99.90;;;;;;5032708;28;20539;-79
2022/04/02 12:37:40;;;;;;;44.53;41.63;;;2.20;99.90;;;;;;5013151;28;20450;-80
2022/04/02 12:40:19;;;;;;;44.50;41.30;;;2.10;99.90;;;;;;5012559;28;21019;-80
2022/04/02 12:42:46;;;;;;;43.87;40.83;;;2.10;99.90;;;;;;5012274;28;20563;-77
2022/04/02 12:45:17;;;;;;;46.37;42.97;;;2.20;99.90;;;;;;5012466;28;20458;-76
2022/04/02 12:47:56;;;;;;;46.00;42.90;;;2.40;99.90;;;;;;5012600;28;20459;-76
2022/04/02 12:50:23;;;;;;;46.90;43.60;;;2.70;99.90;;;;;;5012213;28;20453;-76
2022/04/02 12:52:51;;;;;;;45.97;42.57;;;2.80;99.90;;;;;;5012277;28;20464;-76
2022/04/02 12:55:22;;;;;;;46.30;43.03;;;2.70;99.90;;;;;;5011876;28;20475;-76
2022/04/02 12:58:07;;;;;;;44.90;41.67;;;2.60;99.90;;;;;;5012448;28;20818;-76
2022/04/02 13:00:38;;;;;;;46.47;43.23;;;2.70;99.90;;;;;;5012220;28;20491;-75
2022/04/02 13:03:06;;;;;;;45.90;42.80;;;3.20;99.90;;;;;;5012265;28;20502;-76
2022/04/02 13:05:48;;;;;;;45.47;42.40;;;3.30;99.90;;;;;;5012402;28;20853;-76
2022/04/02 13:08:27;;;;;;;42.13;39.43;;;3.20;99.90;;;;;;5012075;28;20462;-76
2022/04/02 13:10:56;;;;;;;43.57;40.70;;;3.40;99.90;;;;;;5011936;28;20454;-76
2022/04/02 13:13:38;;;;;;;44.63;41.63;;;3.20;99.90;;;;;;5011994;28;20458;-76
2022/04/02 13:16:09;;;;;;;44.33;41.33;;;3.10;99.90;;;;;;5012401;28;20459;-75
2022/04/02 13:21:38;;;;;;;44.70;41.50;;;3.00;99.90;;;;;;4950931;29;20517;-76
2022/04/02 13:24:29;;;;;;;44.47;41.60;;;3.20;99.90;;;;;;4951342;29;20573;-75
2022/04/02 13:27:23;;;;;;;44.27;41.23;;;3.40;99.90;;;;;;4988371;28;20457;-76
2022/04/02 13:30:06;;;;;;;44.33;41.43;;;3.40;99.90;;;;;;5011837;28;20459;-75
2022/04/02 13:33:09;;;;;;;45.40;42.40;;;3.10;99.90;;;;;;5011723;28;20452;-75
2022/04/02 13:35:39;;;;;;;45.00;42.00;;;3.10;99.90;;;;;;5015708;28;20442;-75
2022/04/02 13:38:26;;;;;;;42.83;40.20;;;3.10;99.90;;;;;;5031308;28;20453;-76
2022/04/02 13:40:56;;;;;;;43.07;40.27;;;3.00;99.90;;;;;;5030793;28;20523;-76
2022/04/02 13:43:28;;;;;;;42.87;39.97;;;2.70;99.90;;;;;;5031080;28;20833;-78
2022/04/02 13:45:59;;;;;;;43.97;40.57;;;2.40;99.90;;;;;;5031187;28;20861;-77
2022/04/02 13:48:28;;;;;;;43.10;40.30;;;2.50;99.90;;;;;;5030996;28;20635;-78
2022/04/02 13:51:02;;;;;;;44.53;41.17;;;2.70;99.90;;;;;;5031021;28;20460;-76
2022/04/02 13:53:35;;;;;;;43.50;40.50;;;2.80;99.90;;;;;;5030977;28;20454;-78
2022/04/02 13:56:09;;;;;;;44.60;41.60;;;2.80;99.90;;;;;;5031193;28;20496;-80
2022/04/02 13:58:41;;;;;;;43.30;40.20;;;2.90;99.90;;;;;;5031147;28;20818;-81
2022/04/02 14:01:08;;;;;;;42.67;39.77;;;3.00;99.90;;;;;;5030748;28;20647;-81
2022/04/02 14:03:39;;;;;;;43.20;40.40;;;2.90;99.90;;;;;;5031088;28;20457;-80
2022/04/02 14:06:07;;;;;;;42.27;39.27;;;2.90;99.90;;;;;;5030852;28;20443;-80
2022/04/02 14:08:36;;;;;;;43.40;40.13;;;3.00;99.90;;;;;;5030968;28;21017;-78
2022/04/02 14:11:16;;;;;;;44.50;40.43;;;3.00;99.90;;;;;;5031060;28;20453;-78
2022/04/02 14:13:56;;;;;;;43.30;40.33;;;3.00;99.90;;;;;;5030742;28;20991;-78
2022/04/02 14:16:29;;;;;;;43.40;40.23;;;3.00;99.90;;;;;;5030861;28;20454;-78
2022/04/02 14:19:06;;;;;;;46.50;42.73;;;2.80;99.90;;;;;;5030881;28;20454;-77
2022/04/02 14:21:34;;;;;;;45.33;42.23;;;2.80;99.90;;;;;;5030731;28;20860;-78
2022/04/02 14:24:08;;;;;;;43.57;39.90;;;2.90;99.90;;;;;;5030573;28;20464;-77
2022/04/02 14:27:02;;;;;;;44.33;41.23;;;3.00;99.90;;;;;;5030835;28;20458;-77
2022/04/02 14:29:43;;;;;;;46.87;43.67;;;3.40;99.90;;;;;;5030513;28;20437;-76
2022/04/02 14:32:41;;;;;;;41.73;38.93;;;3.40;99.90;;;;;;5030753;28;20999;-77
2022/04/02 14:35:48;;;;;;;44.67;41.60;;;3.50;99.90;;;;;;5030283;28;20937;-78
2022/04/02 14:38:45;;;;;;;43.00;40.13;;;3.70;99.90;;;;;;5030800;28;20498;-77
2022/04/02 14:41:27;;;;;;;45.97;42.87;;;3.50;99.90;;;;;;5030379;28;20495;-79
2022/04/02 14:44:33;;;;;;;43.87;40.77;;;3.80;99.90;;;;;;5030507;28;20488;-80
2022/04/02 14:47:46;;;;;;;45.97;42.67;;;3.60;99.90;;;;;;5030482;28;20448;-79
2022/04/02 14:50:53;;;;;;;44.13;41.00;;;3.60;99.90;;;;;;5006627;28;20456;-79
2022/04/02 14:53:59;;;;;;;44.20;41.20;;;3.40;99.90;;;;;;5030733;28;20455;-78
2022/04/02 14:57:14;;;;;;;46.40;43.30;;;3.30;99.90;;;;;;5030250;28;20452;-79
2022/04/02 15:00:26;;;;;;;44.83;41.77;;;3.20;99.90;;;;;;5028304;28;21025;-77
2022/04/02 15:03:38;;;;;;;47.33;43.83;;;2.90;99.90;;;;;;5030339;28;20448;-77
2022/04/02 15:06:10;;;;;;;47.10;43.73;;;2.80;99.90;;;;;;4950141;29;20459;-77
2022/04/02 15:09:14;;;;;;;46.23;42.83;;;2.90;99.90;;;;;;5013792;28;20461;-78
2022/04/02 15:11:55;;;;;;;48.57;44.80;;;3.00;99.90;;;;;;5026916;28;20465;-78
2022/04/02 15:14:27;;;;;;;48.57;44.67;;;3.00;99.90;;;;;;5030501;28;20482;-78
2022/04/02 15:16:54;;;;;;;45.80;42.70;;;3.10;99.90;;;;;;5011405;28;20463;-79
2022/04/02 15:19:22;;;;;;;46.20;42.83;;;3.10;99.90;;;;;;5014456;28;20463;-79
2022/04/02 15:21:54;;;;;;;45.27;42.10;;;3.10;99.90;;;;;;5014198;28;20498;-79
2022/04/02 15:24:24;;;;;;;48.83;45.23;;;3.10;99.90;;;;;;5014591;28;20805;-79
2022/04/02 15:26:53;;;;;;;48.30;44.73;;;3.00;99.90;;;;;;5014222;28;20463;-79
2022/04/02 15:29:30;;;;;;;49.80;45.93;;;2.80;99.90;;;;;;5014187;28;20456;-79
2022/04/02 15:32:03;;;;;;;48.57;45.07;;;2.70;99.90;;;;;;5017573;28;20461;-79
2022/04/02 15:34:34;;;;;;;47.27;43.77;;;2.60;99.90;;;;;;5033785;28;20946;-78
2022/04/02 15:37:04;;;;;;;47.70;44.07;;;2.60;99.90;;;;;;5014650;28;20458;-80
2022/04/02 15:39:34;;;;;;;51.67;47.47;;;2.70;99.90;;;;;;5014222;28;20456;-79
2022/04/02 15:42:16;;;;;;;50.17;46.37;;;2.50;99.90;;;;;;5013525;28;21023;-82
2022/04/02 15:44:43;;;;;;;48.30;44.50;;;2.50;99.90;;;;;;5010439;28;21077;-81
2022/04/02 15:47:44;;;;;;;48.27;44.53;;;2.60;99.90;;;;;;5013864;28;20939;-82
2022/04/02 15:50:13;;;;;;;50.77;46.57;;;2.70;99.90;;;;;;5013966;28;20454;-80
2022/04/02 15:52:43;;;;;;;48.27;44.57;;;2.80;99.90;;;;;;5013862;28;20450;-80
2022/04/02 15:55:20;;;;;;;50.17;46.17;;;2.80;99.90;;;;;;5013557;28;20500;-80
2022/04/02 15:58:26;;;;;;;50.00;46.23;;;2.90;99.90;;;;;;5013631;28;20539;-82
2022/04/02 16:00:54;;;;;;;47.17;43.43;;;2.90;99.90;;;;;;5013446;28;20541;-80
2022/04/02 16:03:54;;;;;;;48.67;44.60;;;2.80;99.90;;;;;;5013391;28;20457;-79
2022/04/02 16:06:30;;;;;;;49.67;45.57;;;2.70;99.90;;;;;;5019418;28;20808;-79
2022/04/02 16:09:30;;;;;;;47.53;43.83;;;2.60;99.90;;;;;;5033205;28;21009;-81
2022/04/02 16:11:56;;;;;;;47.13;43.73;;;2.50;99.90;;;;;;5033432;28;20485;-82
2022/04/02 16:14:33;;;;;;;47.10;43.40;;;2.30;99.90;;;;;;5033131;28;20456;-81
2022/04/02 16:17:08;;;;;;;47.43;43.80;;;2.20;99.90;;;;;;5033360;28;20450;-80
2022/04/02 16:19:36;;;;;;;46.87;43.43;;;2.20;99.90;;;;;;5033331;28;20838;-82
2022/04/02 16:22:07;;;;;;;46.00;42.50;;;2.20;99.90;;;;;;5033400;28;20500;-87
2022/04/02 16:24:36;;;;;;;48.87;44.83;;;2.10;99.90;;;;;;5034200;28;20445;-88
2022/04/02 16:27:05;;;;;;;47.50;43.50;;;2.20;99.90;;;;;;5033996;28;20456;-88
2022/04/02 16:29:32;;;;;;;49.30;45.17;;;2.20;99.90;;;;;;5033209;28;20450;-84
2022/04/02 16:32:01;;;;;;;50.70;46.60;;;2.30;99.90;;;;;;5033127;28;20840;-83
2022/04/02 16:34:29;;;;;;;49.03;44.87;;;2.30;99.90;;;;;;5033038;28;20459;-81
2022/04/02 16:37:03;;;;;;;46.90;43.10;;;2.30;99.90;;;;;;5032584;28;20455;-81
2022/04/02 16:39:31;;;;;;;48.17;44.20;;;2.30;99.90;;;;;;5032365;28;20453;-79
2022/04/02 16:42:05;;;;;;;48.57;44.90;;;2.30;99.90;;;;;;5032592;28;20497;-80
2022/04/02 16:44:32;;;;;;;51.47;47.27;;;2.30;99.90;;;;;;5032487;28;20474;-80
2022/04/02 16:47:02;;;;;;;48.77;45.13;;;2.40;99.90;;;;;;5032681;28;20560;-79
2022/04/02 16:49:29;;;;;;;46.80;43.27;;;2.50;99.90;;;;;;5032147;28;20483;-79
2022/04/02 16:52:06;;;;;;;46.57;42.97;;;2.50;99.90;;;;;;5032550;28;20814;-79
2022/04/02 16:54:33;;;;;;;47.47;43.60;;;2.40;99.90;;;;;;5032433;28;20460;-78
2022/04/02 16:57:00;;;;;;;47.77;44.17;;;2.40;99.90;;;;;;5032061;28;20449;-78